createdAt,value
2019-01-11T06:42:20.271Z,99169.63
2019-01-11T06:44:49.426Z,99169.63
2019-01-11T06:47:18.670Z,99187.05
2019-01-11T06:49:47.827Z,99187.05
2019-01-11T06:52:17.004Z,99197.23
2019-01-11T06:54:46.131Z,99190.12
2019-01-11T06:57:15.231Z,99194.46
2019-01-11T06:59:45.780Z,99193.44
2019-01-11T07:02:14.898Z,99184.34
2019-01-11T07:04:44.171Z,99192.05
2019-01-11T07:07:13.464Z,99195.28
2019-01-11T07:09:42.819Z,99189.22
2019-01-11T07:12:12.096Z,99188.86
2019-01-11T07:14:41.221Z,99191.91
2019-01-11T07:17:10.376Z,99188.76
2019-01-11T07:19:39.642Z,99185.14
2019-01-11T07:22:08.775Z,99189.61
2019-01-11T07:24:37.885Z,99190.32
2019-01-11T07:27:07.164Z,99192.91
2019-01-11T07:29:36.612Z,99188.16
2019-01-11T07:32:05.746Z,99181.45
2019-01-11T07:34:34.797Z,99179.74
2019-01-11T07:37:05.175Z,99171.47
2019-01-11T07:39:34.987Z,99175.27
2019-01-11T07:42:04.782Z,99179.56
2019-01-11T07:44:33.974Z,99180.27
2019-01-11T07:47:03.128Z,99174.73
2019-01-11T07:49:32.365Z,99170.02
2019-01-11T07:52:01.873Z,99168.70
2019-01-11T07:54:31.020Z,99162.13
2019-01-11T07:57:00.262Z,99168.77
2019-01-11T07:59:29.386Z,99163.34
2019-01-11T08:01:58.519Z,99168.77
2019-01-11T08:04:27.762Z,99159.82
2019-01-11T08:06:56.859Z,99159.22
2019-01-11T08:09:25.993Z,99164.61
2019-01-11T08:11:55.135Z,99157.91
2019-01-11T08:14:24.342Z,99166.46
2019-01-11T08:16:53.509Z,99164.47
2019-01-11T08:19:22.646Z,99147.86
2019-01-11T08:21:51.738Z,99154.00
2019-01-11T08:24:20.925Z,99147.19
2019-01-11T08:26:50.112Z,99143.20
2019-01-11T08:29:19.287Z,99145.48
2019-01-11T08:31:48.431Z,99143.25
2019-01-11T08:34:17.458Z,99151.52
2019-01-11T08:36:46.647Z,99149.36
2019-01-11T08:39:15.793Z,99150.77
2019-01-11T08:41:44.972Z,99150.14
2019-01-11T08:44:14.170Z,99146.66
2019-01-11T08:46:43.393Z,99146.66
2019-01-11T08:49:12.869Z,99146.94
2019-01-11T08:51:42.027Z,99146.54
2019-01-11T08:54:11.460Z,99145.20
2019-01-11T08:56:40.590Z,99137.64
2019-01-11T08:59:09.747Z,99135.16
2019-01-11T09:01:39.067Z,99131.06
2019-01-11T09:04:08.321Z,99134.16
2019-01-11T09:06:37.440Z,99137.42
2019-01-11T09:09:08.919Z,99138.73
2019-01-11T09:11:38.068Z,99137.88
2019-01-11T09:14:08.953Z,99146.04
2019-01-11T09:16:38.104Z,99146.61
2019-01-11T09:19:08.311Z,99150.23
2019-01-11T09:21:41.581Z,99148.30
2019-01-11T09:24:08.279Z,99149.72
2019-01-11T09:26:37.811Z,99155.51
2019-01-11T09:29:07.000Z,99142.13
2019-01-11T09:31:36.168Z,99158.27
2019-01-11T09:34:05.534Z,99148.55
2019-01-11T09:36:34.995Z,99148.16
2019-01-11T09:39:05.532Z,99141.73
2019-01-11T09:41:34.700Z,99143.58
2019-01-11T09:44:03.929Z,99146.16
2019-01-11T09:46:33.026Z,99147.48
2019-01-11T09:49:02.148Z,99149.52
2019-01-11T09:51:31.273Z,99146.05
2019-01-11T09:54:00.403Z,99134.70
2019-01-11T09:56:29.514Z,99138.77
2019-01-11T09:58:58.641Z,99140.31
2019-01-11T10:01:27.759Z,99141.78
2019-01-11T10:03:56.992Z,99148.36
2019-01-11T10:06:26.091Z,99137.92
2019-01-11T10:08:55.175Z,99145.50
2019-01-11T10:11:27.193Z,99141.56
2019-01-11T10:13:56.898Z,99138.82
2019-01-11T10:16:26.011Z,99140.52
2019-01-11T10:18:55.146Z,99136.07
2019-01-11T10:21:24.398Z,99132.25
2019-01-11T10:23:53.642Z,99133.88
2019-01-11T10:26:22.784Z,99130.55
2019-01-11T10:28:52.026Z,99137.58
2019-01-11T10:31:21.137Z,99130.24
2019-01-11T10:33:50.206Z,99121.53
2019-01-11T10:36:19.315Z,99123.36
2019-01-11T10:38:48.532Z,99117.24
2019-01-11T10:41:17.634Z,99115.16
2019-01-11T10:43:46.853Z,99107.19
2019-01-11T10:46:33.305Z,99102.63
2019-01-11T10:49:02.557Z,99099.84
2019-01-11T10:51:31.826Z,99089.94
2019-01-11T10:54:01.357Z,99087.31
2019-01-11T10:56:30.602Z,99088.16
2019-01-11T10:58:59.772Z,99078.49
2019-01-11T11:01:28.879Z,99073.84
2019-01-11T11:03:57.973Z,99075.01
2019-01-11T11:06:27.173Z,99082.77
2019-01-11T11:08:56.298Z,99086.25
2019-01-11T11:11:25.430Z,99079.34
2019-01-11T11:13:54.487Z,99078.75
2019-01-11T11:16:23.626Z,99068.38
2019-01-11T11:18:52.779Z,99072.95
2019-01-11T11:21:21.892Z,99072.09
2019-01-11T11:23:54.092Z,99064.27
2019-01-11T11:26:22.197Z,99069.38
2019-01-11T11:28:51.688Z,99057.39
2019-01-11T11:31:20.800Z,99054.22
2019-01-11T11:33:49.923Z,99053.00
2019-01-11T11:36:19.066Z,99057.92
2019-01-11T11:38:48.307Z,99050.67
2019-01-11T11:41:17.463Z,99049.17
2019-01-11T11:43:46.770Z,99045.48
2019-01-11T11:46:15.901Z,99033.19
2019-01-11T11:48:45.058Z,99029.60
2019-01-11T11:51:14.229Z,99022.42
2019-01-11T11:53:43.379Z,99016.47
2019-01-11T11:56:12.518Z,99014.84
2019-01-11T11:58:41.678Z,99014.30
2019-01-11T12:01:10.815Z,99022.97
2019-01-11T12:03:40.062Z,99002.44
2019-01-11T12:06:09.553Z,99001.50
2019-01-11T12:08:38.648Z,99004.98
2019-01-11T12:11:08.321Z,98998.11
2019-01-11T12:13:37.411Z,99002.06
2019-01-11T12:16:06.558Z,98999.42
2019-01-11T12:18:35.667Z,98995.75
2019-01-11T12:21:04.829Z,98995.36
2019-01-11T12:23:34.318Z,98983.22
2019-01-11T12:26:03.688Z,98980.41
2019-01-11T12:28:32.855Z,98982.75
2019-01-11T12:31:01.961Z,98982.03
2019-01-11T12:33:31.115Z,98970.44
2019-01-11T12:36:00.338Z,98976.64
2019-01-11T12:38:29.481Z,98978.50
2019-01-11T12:40:58.590Z,98975.95
2019-01-11T12:43:28.026Z,98969.67
2019-01-11T12:45:57.139Z,98967.52
2019-01-11T12:48:26.286Z,98961.39
2019-01-11T12:50:55.415Z,98961.53
2019-01-11T12:53:24.555Z,98958.30
2019-01-11T12:55:53.859Z,98951.55
2019-01-11T12:58:23.054Z,98952.78
2019-01-11T13:00:52.235Z,98956.59
2019-01-11T13:03:21.452Z,98945.66
2019-01-11T13:05:50.752Z,98943.73
2019-01-11T13:08:20.280Z,98942.80
2019-01-11T13:10:49.962Z,98945.98
2019-01-11T13:13:19.527Z,98944.75
2019-01-11T13:15:48.876Z,98929.08
2019-01-11T13:18:18.425Z,98937.45
2019-01-11T13:20:47.927Z,98928.70
2019-01-11T13:23:17.398Z,98929.38
2019-01-11T13:25:47.159Z,98921.39
2019-01-11T13:28:16.929Z,98925.94
2019-01-11T13:30:46.324Z,98929.36
2019-01-11T13:33:15.861Z,98929.22
2019-01-11T13:35:45.285Z,98927.99
2019-01-11T13:38:14.737Z,98930.72
2019-01-11T13:40:44.060Z,98929.48
2019-01-11T13:43:13.632Z,98920.18
2019-01-11T13:45:42.807Z,98917.63
2019-01-11T13:48:12.956Z,98916.41
2019-01-11T13:50:45.312Z,98922.05
2019-01-11T13:53:19.050Z,98924.89
2019-01-11T13:55:48.293Z,98913.63
2019-01-11T13:58:17.736Z,98913.98
2019-01-11T14:00:47.198Z,98915.77
2019-01-11T14:03:16.896Z,98911.91
2019-01-11T14:05:46.162Z,98907.13
2019-01-11T14:08:15.692Z,98903.19
2019-01-11T14:10:45.184Z,98896.77
2019-01-11T14:13:14.375Z,98898.36
2019-01-11T14:15:44.058Z,98900.34
2019-01-11T14:18:13.300Z,98896.57
2019-01-11T14:20:42.645Z,98891.21
2019-01-11T14:23:12.058Z,98891.80
2019-01-11T14:25:41.417Z,98897.63
2019-01-11T14:28:10.842Z,98889.30
2019-01-11T14:30:41.096Z,98883.60
2019-01-11T14:33:10.393Z,98886.15
2019-01-11T14:35:40.019Z,98888.75
2019-01-11T14:38:09.137Z,98881.98
2019-01-11T14:40:38.625Z,98890.83
2019-01-11T14:43:07.983Z,98885.38
2019-01-11T14:45:37.224Z,98876.89
2019-01-11T14:48:06.414Z,98880.58
2019-01-11T14:50:36.206Z,98874.84
2019-01-11T14:53:05.546Z,98883.32
2019-01-11T14:55:34.809Z,98873.63
2019-01-11T14:58:04.043Z,98873.77
2019-01-11T15:00:33.196Z,98869.20
2019-01-11T15:03:02.493Z,98873.39
2019-01-11T15:05:31.849Z,98870.66
2019-01-11T15:08:01.299Z,98868.31
2019-01-11T15:10:30.907Z,98868.62
2019-01-11T15:13:00.137Z,98861.16
2019-01-11T15:15:29.744Z,98862.50
2019-01-11T15:18:00.346Z,98860.56
2019-01-11T15:20:38.079Z,98857.27
2019-01-11T15:23:13.656Z,98867.81
2019-01-11T15:25:43.075Z,98860.00
2019-01-11T15:28:12.086Z,98853.98
2019-01-11T15:30:41.255Z,98858.91
2019-01-11T15:33:10.584Z,98855.52
2019-01-11T15:35:40.293Z,98855.52
2019-01-11T15:38:09.680Z,98854.11
2019-01-11T15:40:39.260Z,98851.48
2019-01-11T15:43:08.402Z,98861.49
2019-01-11T15:45:37.563Z,98862.05
2019-01-11T15:48:06.814Z,98865.41
2019-01-11T15:50:56.890Z,98861.59
2019-01-11T15:53:27.929Z,98863.91
2019-01-11T15:56:00.426Z,98866.95
2019-01-11T15:58:29.570Z,98849.31
2019-01-11T16:00:58.693Z,98852.64
2019-01-11T16:03:27.945Z,98850.75
2019-01-11T16:06:31.532Z,98846.80
2019-01-11T16:09:58.881Z,98851.13
2019-01-11T16:12:37.060Z,98849.34
2019-01-11T16:15:37.496Z,98853.42
2019-01-11T16:18:11.800Z,98841.91
2019-01-11T16:20:41.322Z,98840.21
2019-01-11T16:23:10.691Z,98840.21
2019-01-11T16:25:40.005Z,98841.94
2019-01-11T16:28:09.460Z,98844.09
2019-01-11T16:30:38.938Z,98849.66
2019-01-11T16:33:08.411Z,98846.65
2019-01-11T16:35:37.795Z,98844.73
2019-01-11T16:38:07.144Z,98845.50
2019-01-11T16:40:36.480Z,98841.55
2019-01-11T16:43:05.820Z,98845.22
2019-01-11T16:45:35.348Z,98851.08
2019-01-11T16:48:04.736Z,98851.81
2019-01-11T16:50:33.915Z,98851.52
2019-01-11T16:53:03.003Z,98853.41
2019-01-11T16:55:33.338Z,98853.70
2019-01-11T16:58:02.663Z,98854.82
2019-01-11T17:00:32.332Z,98857.91
2019-01-11T17:03:02.208Z,98860.36
2019-01-11T17:05:31.878Z,98860.34
2019-01-11T17:08:01.283Z,98860.19
2019-01-11T17:10:33.195Z,98863.28
2019-01-11T17:13:02.728Z,98862.78
2019-01-11T17:15:32.898Z,98863.45
2019-01-11T17:18:02.440Z,98865.92
2019-01-11T17:20:32.799Z,98856.20
2019-01-11T17:23:02.471Z,98856.30
2019-01-11T17:25:32.220Z,98855.05
2019-01-11T17:28:01.758Z,98856.65
2019-01-11T17:30:31.237Z,98851.77
2019-01-11T17:33:02.337Z,98855.63
2019-01-11T17:35:31.451Z,98848.25
2019-01-11T17:38:00.639Z,98854.86
2019-01-11T17:40:29.772Z,98857.22
2019-01-11T17:42:58.871Z,98851.84
2019-01-11T17:45:28.038Z,98843.30
2019-01-11T17:47:57.167Z,98830.19
2019-01-11T17:50:26.314Z,98830.68
2019-01-11T17:52:59.730Z,98832.84
2019-01-11T17:55:26.547Z,98838.07
2019-01-11T17:57:55.708Z,98844.78
2019-01-11T18:00:25.106Z,98840.35
2019-01-11T18:02:54.260Z,98833.88
2019-01-11T18:05:23.483Z,98840.12
2019-01-11T18:07:52.692Z,98839.12
2019-01-11T18:10:21.836Z,98849.73
2019-01-11T18:12:51.192Z,98848.17
2019-01-11T18:15:22.080Z,98841.50
2019-01-11T18:17:51.178Z,98844.95
2019-01-11T18:20:25.792Z,98843.11
2019-01-11T18:22:55.197Z,98838.28
2019-01-11T18:25:25.471Z,98835.22
2019-01-11T18:27:56.254Z,98837.70
2019-01-11T18:30:25.867Z,98836.55
2019-01-11T18:32:55.249Z,98830.95
2019-01-11T18:35:24.978Z,98830.73
2019-01-11T18:37:54.216Z,98833.02
2019-01-11T18:40:25.397Z,98829.63
2019-01-11T18:42:57.994Z,98829.05
2019-01-11T18:45:28.702Z,98836.81
2019-01-11T18:47:58.705Z,98829.30
2019-01-11T18:50:27.934Z,98833.80
2019-01-11T18:52:57.253Z,98825.27
2019-01-11T18:55:26.621Z,98831.03
2019-01-11T18:57:56.457Z,98833.70
2019-01-11T19:00:27.065Z,98816.38
2019-01-11T19:02:56.336Z,98812.89
2019-01-11T19:05:25.920Z,98815.64
2019-01-11T19:07:55.161Z,98831.98
2019-01-11T19:10:24.578Z,98826.11
2019-01-11T19:12:53.883Z,98843.41
2019-01-11T19:15:28.556Z,98840.61
2019-01-11T19:17:57.810Z,98836.62
2019-01-11T19:20:31.194Z,98845.66
2019-01-11T19:23:01.460Z,98847.30
2019-01-11T19:25:31.086Z,98841.38
2019-01-11T19:28:00.381Z,98848.63
2019-01-11T19:30:30.547Z,98848.09
2019-01-11T19:32:59.944Z,98849.73
2019-01-11T19:35:29.112Z,98846.91
2019-01-11T19:37:58.581Z,98844.13
2019-01-11T19:40:28.007Z,98847.14
2019-01-11T19:42:57.313Z,98847.39
2019-01-11T19:45:26.554Z,98856.74
2019-01-11T19:47:55.802Z,98851.41
2019-01-11T19:50:25.585Z,98854.00
2019-01-11T19:52:54.829Z,98858.15
2019-01-11T19:55:24.210Z,98857.48
2019-01-11T19:57:53.491Z,98858.17
2019-01-11T20:00:25.095Z,98851.64
2019-01-11T20:02:54.994Z,98860.44
2019-01-11T20:05:24.881Z,98849.49
2019-01-11T20:07:54.337Z,98859.13
2019-01-11T20:10:29.111Z,98849.66
2019-01-11T20:12:58.376Z,98844.19
2019-01-11T20:15:27.475Z,98852.77
2019-01-11T20:17:56.926Z,98847.36
2019-01-11T20:20:26.162Z,98854.31
2019-01-11T20:23:02.175Z,98848.75
2019-01-11T20:25:26.871Z,98843.36
2019-01-11T20:27:56.113Z,98844.73
2019-01-11T20:30:27.128Z,98848.02
2019-01-11T20:32:56.447Z,98843.55
2019-01-11T20:35:26.047Z,98841.40
2019-01-11T20:37:55.388Z,98850.80
2019-01-11T20:40:24.715Z,98853.13
2019-01-11T20:42:54.102Z,98849.63
2019-01-11T20:45:23.798Z,98854.19
2019-01-11T20:47:53.113Z,98850.80
2019-01-11T20:50:24.049Z,98844.19
2019-01-11T20:52:53.328Z,98846.34
2019-01-11T20:55:22.418Z,98847.75
2019-01-11T20:57:51.941Z,98849.18
2019-01-11T21:00:27.340Z,98851.33
2019-01-11T21:02:56.816Z,98852.88
2019-01-11T21:05:26.598Z,98859.28
2019-01-11T21:07:55.884Z,98850.81
2019-01-11T21:10:24.987Z,98859.88
2019-01-11T21:12:54.299Z,98861.66
2019-01-11T21:15:24.079Z,98853.92
2019-01-11T21:17:53.188Z,98860.86
2019-01-11T21:20:22.546Z,98865.16
2019-01-11T21:22:51.750Z,98858.48
2019-01-11T21:25:21.234Z,98859.66
2019-01-11T21:27:50.965Z,98860.32
2019-01-11T21:30:25.519Z,98856.09
2019-01-11T21:32:54.867Z,98864.81
2019-01-11T21:35:24.546Z,98856.45
2019-01-11T21:37:53.666Z,98861.17
2019-01-11T21:40:22.833Z,98867.57
2019-01-11T21:42:51.940Z,98868.17
2019-01-11T21:45:21.178Z,98871.38
2019-01-11T21:47:50.538Z,98870.18
2019-01-11T21:50:24.874Z,98863.23
2019-01-11T21:52:54.148Z,98859.58
2019-01-11T21:55:23.304Z,98858.52
2019-01-11T21:57:53.750Z,98867.41
2019-01-11T22:01:08.085Z,98874.63
2019-01-11T22:03:37.215Z,98871.23
2019-01-11T22:06:06.343Z,98868.06
2019-01-11T22:08:35.498Z,98870.64
2019-01-11T22:11:04.912Z,98874.83
2019-01-11T22:13:34.072Z,98872.87
2019-01-11T22:16:03.260Z,98869.49
2019-01-11T22:18:32.439Z,98866.25
2019-01-11T22:21:01.629Z,98868.91
2019-01-11T22:23:30.954Z,98864.77
2019-01-11T22:26:00.356Z,98878.96
2019-01-11T22:28:29.819Z,98874.05
2019-01-11T22:30:58.919Z,98871.77
2019-01-11T22:33:28.093Z,98874.83
2019-01-11T22:35:57.173Z,98900.02
2019-01-11T22:38:26.307Z,98872.75
2019-01-11T22:40:55.410Z,98877.20
2019-01-11T22:43:24.663Z,98873.67
2019-01-11T22:45:53.802Z,98872.39
2019-01-11T22:48:22.956Z,98864.66
2019-01-11T22:50:52.058Z,98876.62
2019-01-11T22:53:21.186Z,98878.96
2019-01-11T22:55:50.322Z,98878.96
2019-01-11T22:58:19.531Z,98884.78
2019-01-11T23:01:04.893Z,98872.98
2019-01-11T23:03:42.628Z,98875.34
2019-01-11T23:06:34.521Z,98881.39
2019-01-11T23:09:04.451Z,98867.78
2019-01-11T23:12:17.822Z,98876.83
2019-01-11T23:14:46.924Z,98875.53
2019-01-11T23:17:45.623Z,98870.80
2019-01-11T23:20:15.274Z,98879.89
2019-01-11T23:22:44.397Z,98858.73
2019-01-11T23:25:17.470Z,98862.05
2019-01-11T23:27:46.604Z,98857.73
2019-01-11T23:30:17.451Z,98863.02
2019-01-11T23:32:46.711Z,98865.24
2019-01-11T23:35:15.893Z,98865.43
2019-01-11T23:37:45.019Z,98863.28
2019-01-11T23:40:16.226Z,98877.99
2019-01-11T23:42:46.233Z,98876.83
2019-01-11T23:45:15.507Z,98873.13
2019-01-11T23:47:44.736Z,98880.64
2019-01-11T23:50:16.276Z,98868.73
2019-01-11T23:52:45.479Z,98862.05
2019-01-11T23:55:14.688Z,98863.02
2019-01-11T23:57:44.109Z,98862.44
